Time;durP1;ratioP1;P1;durP2;ratioP2;P2;SDS_P1;SDS_P2;PMS_P1;PMS_P2;Temp;Humidity;BMP_temperature;BMP_pressure;BME280_temperature;BME280_humidity;BME280_pressure;Samples;Min_cycle;Max_cycle;Signal;HPM_P1;HPM_P2
2022/10/11 00:01:44;;;;;;;10.27;5.90;;;;;;;13.51;100.00;98637.81;5100713;28;20226;-65
2022/10/11 00:04:11;;;;;;;9.87;6.63;;;;;;;13.44;100.00;98633.91;5100834;28;20673;-65
2022/10/11 00:06:37;;;;;;;16.07;7.37;;;;;;;13.43;100.00;98637.50;5101167;28;20270;-66
2022/10/11 00:09:06;;;;;;;9.37;7.27;;;;;;;13.38;100.00;98631.69;5101836;28;20262;-65
2022/10/11 00:11:33;;;;;;;11.43;7.17;;;;;;;13.33;100.00;98634.66;5100658;28;20229;-65
2022/10/11 00:13:59;;;;;;;11.60;7.07;;;;;;;13.29;100.00;98637.66;5100568;28;20263;-65
2022/10/11 00:16:26;;;;;;;11.57;6.43;;;;;;;13.22;100.00;98639.06;5103888;28;20262;-65
2022/10/11 00:18:53;;;;;;;10.50;7.17;;;;;;;13.17;100.00;98641.19;5103805;28;20283;-65
2022/10/11 00:21:20;;;;;;;13.40;7.67;;;;;;;13.14;100.00;98633.47;5100575;28;20273;-65
2022/10/11 00:23:47;;;;;;;12.37;7.20;;;;;;;13.15;100.00;98637.81;5100471;28;20230;-65
2022/10/11 00:26:16;;;;;;;9.07;7.07;;;;;;;13.14;100.00;98634.28;5100480;28;20257;-65
2022/10/11 00:28:42;;;;;;;9.57;6.83;;;;;;;13.13;100.00;98637.91;5110616;28;20266;-65
2022/10/11 00:31:13;;;;;;;10.63;6.60;;;;;;;13.07;100.00;98632.19;5113652;28;20261;-65
2022/10/11 00:33:40;;;;;;;9.57;6.10;;;;;;;13.03;100.00;98643.97;5112023;28;20264;-65
2022/10/11 00:36:07;;;;;;;7.87;5.83;;;;;;;12.99;100.00;98643.34;5114019;28;20360;-65
2022/10/11 00:38:34;;;;;;;10.37;6.50;;;;;;;12.96;100.00;98634.75;5110842;28;20243;-65
2022/10/11 00:41:01;;;;;;;8.13;5.80;;;;;;;12.94;100.00;98633.97;5113749;28;20269;-65
2022/10/11 00:43:31;;;;;;;8.77;6.20;;;;;;;12.93;100.00;98648.19;5113641;28;20574;-65
2022/10/11 00:46:25;;;;;;;8.43;6.10;;;;;;;12.93;100.00;98637.59;5113139;28;20261;-65
2022/10/11 00:48:57;;;;;;;8.67;6.20;;;;;;;12.91;100.00;98640.34;5100265;28;20294;-65
2022/10/11 00:51:31;;;;;;;10.67;7.83;;;;;;;12.89;100.00;98641.44;5100329;28;20685;-65
2022/10/11 00:54:00;;;;;;;9.30;6.23;;;;;;;12.88;100.00;98650.31;5101775;28;20284;-66
2022/10/11 00:56:31;;;;;;;17.30;8.90;;;;;;;12.81;100.00;98657.00;5107171;28;20562;-66
2022/10/11 00:59:03;;;;;;;15.30;7.73;;;;;;;12.86;100.00;98654.88;5099339;28;20286;-65
2022/10/11 01:01:30;;;;;;;13.50;7.33;;;;;;;12.83;100.00;98653.31;5099664;28;20228;-65
2022/10/11 01:03:57;;;;;;;12.90;7.40;;;;;;;12.78;100.00;98647.47;5102984;28;20265;-65
2022/10/11 01:06:24;;;;;;;12.17;7.07;;;;;;;12.75;100.00;98644.19;5100443;28;20262;-65
2022/10/11 01:08:52;;;;;;;10.00;6.87;;;;;;;12.72;100.00;98639.94;5100236;28;20282;-65
2022/10/11 01:11:23;;;;;;;10.47;7.27;;;;;;;12.70;100.00;98647.16;5100086;28;20352;-65
2022/10/11 01:14:03;;;;;;;11.73;7.97;;;;;;;12.68;100.00;98653.53;5105568;28;20279;-66
2022/10/11 01:16:34;;;;;;;13.10;8.20;;;;;;;12.70;100.00;98651.59;5103993;28;20261;-65
2022/10/11 01:19:16;;;;;;;13.43;8.93;;;;;;;12.67;100.00;98650.03;5103882;28;20282;-66
2022/10/11 01:21:48;;;;;;;12.53;8.13;;;;;;;12.68;100.00;98648.22;5107136;28;20262;-65
2022/10/11 01:25:14;;;;;;;13.77;9.00;;;;;;;12.74;100.00;98650.44;5103835;28;20284;-66
2022/10/11 01:27:53;;;;;;;18.63;10.63;;;;;;;12.83;100.00;98653.31;5113917;28;20638;-66
2022/10/11 01:30:25;;;;;;;16.23;10.40;;;;;;;12.81;100.00;98651.72;5117128;28;20319;-66
2022/10/11 01:33:05;;;;;;;18.53;11.23;;;;;;;12.79;100.00;98649.19;5109559;28;20227;-65
2022/10/11 01:35:39;;;;;;;19.30;12.57;;;;;;;12.82;100.00;98651.59;5107219;28;20268;-66
2022/10/11 01:38:13;;;;;;;19.43;11.93;;;;;;;12.84;100.00;98660.28;5103926;28;20291;-66
2022/10/11 01:40:45;;;;;;;23.20;14.07;;;;;;;12.90;100.00;98654.56;5103406;28;20281;-65
2022/10/11 01:43:14;;;;;;;20.67;13.70;;;;;;;12.96;100.00;98650.69;5105602;28;20241;-65
2022/10/11 01:45:43;;;;;;;23.70;13.73;;;;;;;13.00;100.00;98645.03;5104149;28;20533;-65
2022/10/11 01:48:12;;;;;;;21.67;13.37;;;;;;;13.06;100.00;98649.06;5103219;28;20286;-65
2022/10/11 01:50:49;;;;;;;24.13;14.23;;;;;;;13.14;100.00;98650.22;5103190;28;20258;-65
2022/10/11 01:53:28;;;;;;;27.10;15.43;;;;;;;13.25;100.00;98654.75;5111812;28;20649;-63
2022/10/11 01:56:00;;;;;;;20.70;14.27;;;;;;;13.31;100.00;98660.47;5116032;28;20257;-64
2022/10/11 01:58:36;;;;;;;26.27;14.83;;;;;;;13.35;100.00;98651.34;5116393;28;20287;-65
2022/10/11 02:01:15;;;;;;;24.07;15.10;;;;;;;13.36;100.00;98646.88;5112848;28;20301;-64
2022/10/11 02:03:47;;;;;;;23.80;14.17;;;;;;;13.37;100.00;98645.91;5103023;28;20277;-63
2022/10/11 02:06:20;;;;;;;26.50;14.47;;;;;;;13.38;100.00;98650.28;5102942;28;20265;-64
2022/10/11 02:08:53;;;;;;;24.47;15.20;;;;;;;13.39;100.00;98646.66;5105070;28;20609;-63
2022/10/11 02:11:24;;;;;;;27.47;17.37;;;;;;;13.40;100.00;98641.25;5103123;28;20231;-63
2022/10/11 02:13:57;;;;;;;32.40;17.33;;;;;;;13.37;100.00;98648.56;5102823;28;20255;-64
2022/10/11 02:16:31;;;;;;;28.53;17.17;;;;;;;13.35;100.00;98647.81;5102777;28;20223;-64
2022/10/11 02:19:01;;;;;;;30.30;17.47;;;;;;;13.34;100.00;98648.78;5102915;28;20520;-64
2022/10/11 02:21:33;;;;;;;23.50;15.10;;;;;;;13.32;100.00;98651.56;5102626;28;20234;-64
2022/10/11 02:24:04;;;;;;;36.90;19.63;;;;;;;13.35;100.00;98651.34;5101795;28;20522;-65
2022/10/11 02:26:33;;;;;;;32.23;18.70;;;;;;;13.33;100.00;98655.06;5104617;28;20261;-65
2022/10/11 02:29:03;;;;;;;32.30;18.57;;;;;;;13.26;100.00;98651.16;5102712;28;20259;-64
2022/10/11 02:31:34;;;;;;;37.27;18.77;;;;;;;13.25;100.00;98655.59;5102423;28;20259;-64
2022/10/11 02:34:09;;;;;;;34.47;20.13;;;;;;;13.32;100.00;98656.03;5102497;28;20254;-65
2022/10/11 02:36:45;;;;;;;38.20;20.77;;;;;;;13.34;100.00;98656.75;5113193;28;20272;-64
2022/10/11 02:39:17;;;;;;;39.30;21.17;;;;;;;13.34;100.00;98656.75;5115582;28;20614;-66
2022/10/11 02:41:45;;;;;;;43.30;22.93;;;;;;;13.29;100.00;98658.88;5115565;28;20660;-66
2022/10/11 02:44:16;;;;;;;39.47;20.17;;;;;;;13.33;100.00;98663.03;5111539;28;20226;-65
2022/10/11 02:46:46;;;;;;;35.00;18.80;;;;;;;13.37;100.00;98664.47;5117892;28;20536;-64
2022/10/11 02:49:14;;;;;;;40.00;19.97;;;;;;;13.34;100.00;98664.72;5115600;28;20261;-65
2022/10/11 02:51:41;;;;;;;37.50;19.90;;;;;;;13.40;100.00;98666.94;5115456;28;20268;-66
2022/10/11 02:54:08;;;;;;;35.97;21.17;;;;;;;13.48;100.00;98660.13;5112348;28;20290;-65
2022/10/11 02:56:35;;;;;;;37.67;20.53;;;;;;;13.44;100.00;98661.28;5111857;28;20262;-66
2022/10/11 02:59:01;;;;;;;38.23;20.17;;;;;;;13.42;100.00;98660.56;5102161;28;20608;-66
2022/10/11 03:01:28;;;;;;;33.80;19.70;;;;;;;13.44;100.00;98661.28;5102061;28;20262;-66
2022/10/11 03:03:56;;;;;;;35.50;20.53;;;;;;;13.48;100.00;98668.09;5104759;28;20266;-66
2022/10/11 03:06:23;;;;;;;34.03;19.63;;;;;;;13.48;100.00;98662.78;5102270;28;20267;-66
2022/10/11 03:08:49;;;;;;;41.03;21.73;;;;;;;13.45;100.00;98668.28;5102027;28;20243;-66
2022/10/11 03:11:16;;;;;;;37.50;20.67;;;;;;;13.52;100.00;98668.72;5100289;28;20657;-66
2022/10/11 03:13:43;;;;;;;46.60;23.77;;;;;;;13.48;100.00;98665.44;5104335;28;20270;-66
2022/10/11 03:16:09;;;;;;;44.83;22.33;;;;;;;13.53;100.00;98670.41;5102564;28;20249;-66
2022/10/11 03:18:36;;;;;;;36.90;22.03;;;;;;;13.56;100.00;98675.50;5101644;28;20254;-65
2022/10/11 03:21:04;;;;;;;39.77;20.50;;;;;;;13.56;100.00;98675.50;5101584;28;20586;-66
2022/10/11 03:23:30;;;;;;;35.90;19.00;;;;;;;13.57;100.00;98671.88;5103683;28;20263;-65
2022/10/11 03:25:57;;;;;;;39.53;20.93;;;;;;;13.60;100.00;98679.63;5102503;28;20257;-66
2022/10/11 03:28:24;;;;;;;38.00;21.63;;;;;;;13.59;100.00;98678.78;5101389;28;20262;-65
2022/10/11 03:30:51;;;;;;;40.37;21.87;;;;;;;13.63;100.00;98677.56;5101194;28;20267;-66
2022/10/11 03:33:18;;;;;;;46.70;22.47;;;;;;;13.65;100.00;98683.66;5103045;28;20254;-66
2022/10/11 03:35:46;;;;;;;38.97;21.67;;;;;;;13.62;100.00;98680.38;5100533;28;20270;-66
2022/10/11 03:38:16;;;;;;;37.87;21.43;;;;;;;13.66;100.00;98684.47;5101297;28;20269;-66
2022/10/11 03:40:43;;;;;;;43.10;23.77;;;;;;;13.63;100.00;98684.72;5101107;28;20253;-66
2022/10/11 03:43:10;;;;;;;41.13;21.43;;;;;;;13.66;100.00;98695.97;5103402;28;20328;-66
2022/10/11 03:45:37;;;;;;;35.87;21.27;;;;;;;13.68;100.00;98685.25;5102226;28;20268;-66
2022/10/11 03:48:04;;;;;;;40.47;21.63;;;;;;;13.68;100.00;98686.06;5101167;28;20256;-66
2022/10/11 03:50:31;;;;;;;33.60;19.83;;;;;;;13.69;100.00;98695.72;5100953;28;20267;-66
2022/10/11 03:52:58;;;;;;;33.10;19.43;;;;;;;13.69;100.00;98689.59;5102930;28;20600;-66
2022/10/11 03:55:26;;;;;;;40.00;19.33;;;;;;;13.71;100.00;98698.28;5098896;28;20262;-66
2022/10/11 03:57:52;;;;;;;38.70;21.13;;;;;;;13.71;100.00;98696.47;5100996;28;20289;-66
2022/10/11 04:00:19;;;;;;;32.73;20.20;;;;;;;13.68;100.00;98699.34;5100844;28;20693;-66
2022/10/11 04:02:46;;;;;;;35.63;20.60;;;;;;;13.66;100.00;98703.06;5112243;28;20615;-66
2022/10/11 04:05:12;;;;;;;35.33;20.60;;;;;;;13.63;100.00;98703.31;5112482;28;20262;-66
2022/10/11 04:07:39;;;;;;;38.47;20.70;;;;;;;13.61;100.00;98700.75;5114146;28;20662;-66
2022/10/11 04:10:07;;;;;;;33.30;20.27;;;;;;;13.57;100.00;98709.06;5114118;28;20273;-66
2022/10/11 04:12:36;;;;;;;34.90;21.27;;;;;;;13.51;100.00;98712.16;5112619;28;20226;-66
2022/10/11 04:15:03;;;;;;;34.83;21.13;;;;;;;13.54;100.00;98714.59;5112357;28;20255;-68
2022/10/11 04:17:30;;;;;;;37.73;21.33;;;;;;;13.55;100.00;98709.16;5113856;28;20258;-66
2022/10/11 04:19:56;;;;;;;37.53;21.77;;;;;;;13.53;100.00;98712.88;5113765;28;20278;-66
2022/10/11 04:22:23;;;;;;;38.17;21.47;;;;;;;13.58;100.00;98716.06;5112454;28;20269;-66
2022/10/11 04:24:50;;;;;;;38.30;20.67;;;;;;;13.57;100.00;98711.72;5111771;28;20263;-66
2022/10/11 04:27:17;;;;;;;34.30;20.03;;;;;;;13.59;100.00;98713.31;5111965;28;20232;-66
2022/10/11 04:29:45;;;;;;;37.50;20.80;;;;;;;13.63;100.00;98713.94;5113774;28;20305;-66
2022/10/11 04:32:12;;;;;;;44.27;22.97;;;;;;;13.61;100.00;98721.16;5112594;28;20268;-66
2022/10/11 04:34:38;;;;;;;39.57;21.40;;;;;;;13.62;100.00;98714.91;5111534;28;20259;-66
2022/10/11 04:37:05;;;;;;;33.53;18.93;;;;;;;13.64;100.00;98713.81;5113673;28;20273;-66
2022/10/11 04:39:31;;;;;;;37.20;20.50;;;;;;;13.66;100.00;98719.00;5113786;28;20320;-66
2022/10/11 04:41:58;;;;;;;34.60;19.97;;;;;;;13.66;100.00;98724.31;5113094;28;20664;-66
2022/10/11 04:44:25;;;;;;;34.93;20.60;;;;;;;13.69;100.00;98724.13;5110769;28;20262;-66
2022/10/11 04:46:54;;;;;;;35.23;20.13;;;;;;;13.71;100.00;98727.50;5113598;28;20262;-66
2022/10/11 04:49:20;;;;;;;29.53;18.73;;;;;;;13.73;100.00;98728.22;5117248;28;20269;-66
2022/10/11 04:51:47;;;;;;;30.40;19.43;;;;;;;13.73;100.00;98731.75;5118297;28;20268;-66
2022/10/11 04:54:14;;;;;;;27.73;17.13;;;;;;;13.74;100.00;98729.94;5113225;28;20258;-67
2022/10/11 04:56:40;;;;;;;28.03;17.30;;;;;;;13.74;100.00;98727.28;5109417;28;20249;-67
2022/10/11 04:59:07;;;;;;;28.30;17.30;;;;;;;13.76;100.00;98736.00;5117680;28;20594;-67
2022/10/11 05:01:34;;;;;;;27.87;17.87;;;;;;;13.77;100.00;98738.56;5117625;28;20222;-67
2022/10/11 05:04:02;;;;;;;27.77;17.57;;;;;;;13.77;100.00;98738.56;5114405;28;20315;-66
2022/10/11 05:06:28;;;;;;;27.70;17.50;;;;;;;13.77;100.00;98740.34;5117557;28;20261;-67
2022/10/11 05:08:55;;;;;;;27.57;18.20;;;;;;;13.79;100.00;98749.03;5117371;28;20281;-67
2022/10/11 05:11:22;;;;;;;29.07;18.57;;;;;;;13.80;100.00;98746.28;5117473;28;20678;-66
2022/10/11 05:13:48;;;;;;;32.77;19.97;;;;;;;13.82;100.00;98746.19;5113864;28;20276;-66
2022/10/11 05:16:15;;;;;;;32.53;18.67;;;;;;;13.80;100.00;98742.75;5117320;28;20261;-66
2022/10/11 05:18:42;;;;;;;28.40;17.83;;;;;;;13.82;100.00;98746.19;5112618;28;20254;-66
2022/10/11 05:21:16;;;;;;;28.10;17.43;;;;;;;13.78;100.00;98752.66;5102153;28;20281;-68
2022/10/11 05:23:43;;;;;;;29.23;18.00;;;;;;;13.78;100.00;98760.63;5114093;28;20276;-66
2022/10/11 05:26:09;;;;;;;32.43;18.63;;;;;;;13.78;100.00;98760.63;5117444;28;20261;-66
2022/10/11 05:28:36;;;;;;;30.43;17.07;;;;;;;13.79;100.00;98757.00;5117265;28;20261;-66
2022/10/11 05:31:03;;;;;;;22.53;15.33;;;;;;;13.77;100.00;98767.78;5116877;28;20258;-66
2022/10/11 05:33:30;;;;;;;27.17;15.73;;;;;;;13.72;100.00;98766.38;5110867;28;20259;-68
2022/10/11 05:35:56;;;;;;;25.07;14.97;;;;;;;13.73;100.00;98762.75;5102369;28;20265;-67
2022/10/11 05:38:24;;;;;;;25.80;17.00;;;;;;;13.74;100.00;98775.13;5102326;28;20273;-68
2022/10/11 05:40:51;;;;;;;32.37;17.30;;;;;;;13.74;100.00;98780.44;5102242;28;20278;-68
2022/10/11 05:43:18;;;;;;;31.57;17.33;;;;;;;13.73;100.00;98787.53;5105631;28;20229;-68
2022/10/11 05:45:45;;;;;;;26.20;16.67;;;;;;;13.75;100.00;98782.13;5100169;28;20641;-68
2022/10/11 05:48:12;;;;;;;27.37;16.50;;;;;;;13.76;100.00;98789.97;5102265;28;20581;-67
2022/10/11 05:50:39;;;;;;;26.17;15.53;;;;;;;13.76;100.00;98789.97;5101999;28;20259;-68
2022/10/11 05:53:06;;;;;;;30.47;16.60;;;;;;;13.81;100.00;98787.81;5105269;28;20257;-68
2022/10/11 05:55:37;;;;;;;22.33;15.27;;;;;;;13.79;100.00;98799.53;5114788;28;20257;-68
2022/10/11 05:58:04;;;;;;;30.13;16.40;;;;;;;13.78;100.00;98808.47;5106930;28;20269;-68
2022/10/11 06:00:31;;;;;;;26.27;15.70;;;;;;;13.74;100.00;98807.81;5114892;28;20706;-69
2022/10/11 06:02:58;;;;;;;21.67;15.00;;;;;;;13.72;100.00;98820.38;5111703;28;20266;-67
2022/10/11 06:05:24;;;;;;;26.13;15.80;;;;;;;13.76;100.00;98811.22;5115131;28;20261;-67
2022/10/11 06:07:51;;;;;;;21.07;14.97;;;;;;;13.78;100.00;98819.09;5115033;28;20294;-67
2022/10/11 06:10:18;;;;;;;19.30;14.43;;;;;;;13.78;100.00;98829.72;5113596;28;20284;-67
2022/10/11 06:12:46;;;;;;;24.30;16.03;;;;;;;13.71;100.00;98823.13;5107714;28;20689;-66
2022/10/11 06:15:13;;;;;;;22.73;15.07;;;;;;;13.71;100.00;98828.44;5100864;28;20266;-67
2022/10/11 06:17:40;;;;;;;26.17;15.00;;;;;;;13.70;100.00;98829.41;5101429;28;20558;-68
2022/10/11 06:20:07;;;;;;;23.63;14.93;;;;;;;13.74;100.00;98825.59;5101252;28;20636;-68
2022/10/11 06:22:34;;;;;;;22.10;14.67;;;;;;;13.71;100.00;98828.44;5104463;28;20262;-67
2022/10/11 06:25:01;;;;;;;23.27;14.23;;;;;;;13.69;100.00;98830.38;5101665;28;20235;-67
2022/10/11 06:27:27;;;;;;;20.30;13.70;;;;;;;13.68;100.00;98831.34;5101393;28;20642;-67
2022/10/11 06:29:56;;;;;;;21.63;14.47;;;;;;;13.69;100.00;98833.03;5101423;28;20222;-67
2022/10/11 06:32:22;;;;;;;21.03;13.57;;;;;;;13.70;100.00;98846.19;5113864;28;20248;-68
2022/10/11 06:34:49;;;;;;;20.90;14.13;;;;;;;13.76;100.00;98839.59;5101867;28;20306;-68
2022/10/11 06:37:15;;;;;;;23.70;15.03;;;;;;;13.74;100.00;98852.16;5101363;28;20262;-68
2022/10/11 06:39:42;;;;;;;18.77;13.10;;;;;;;13.75;100.00;98852.03;5098667;28;20817;-71
2022/10/11 06:42:10;;;;;;;21.33;13.93;;;;;;;13.72;100.00;98846.94;5103279;28;20532;-71
2022/10/11 06:44:36;;;;;;;23.60;13.73;;;;;;;13.76;100.00;98844.94;5101015;28;20260;-71
2022/10/11 06:47:05;;;;;;;21.17;13.60;;;;;;;13.76;100.00;98863.53;5101014;28;20262;-71
2022/10/11 06:49:32;;;;;;;25.13;14.17;;;;;;;13.83;100.00;98867.44;5101051;28;20263;-70
2022/10/11 06:51:59;;;;;;;23.43;13.00;;;;;;;13.76;100.00;98871.50;5103413;28;20284;-71
2022/10/11 06:54:26;;;;;;;20.30;12.80;;;;;;;13.80;100.00;98864.97;5101994;28;20564;-71
2022/10/11 06:56:52;;;;;;;24.07;13.17;;;;;;;13.79;100.00;98863.28;5105107;28;20638;-71
2022/10/11 06:59:19;;;;;;;21.50;13.60;;;;;;;13.84;100.00;98867.34;5100789;28;20534;-71
2022/10/11 07:01:46;;;;;;;20.80;13.53;;;;;;;13.81;100.00;98872.03;5102584;28;20278;-69
2022/10/11 07:04:14;;;;;;;18.07;13.23;;;;;;;13.78;100.00;98867.78;5101767;28;20262;-70
2022/10/11 07:06:41;;;;;;;24.30;13.37;;;;;;;13.86;100.00;98877.84;5097025;28;20278;-71
2022/10/11 07:09:08;;;;;;;23.70;13.57;;;;;;;13.82;100.00;98874.53;5098682;28;20320;-72
2022/10/11 07:11:35;;;;;;;19.60;12.93;;;;;;;13.86;100.00;98885.81;5099634;28;20307;-70
2022/10/11 07:14:06;;;;;;;20.80;13.40;;;;;;;13.87;100.00;98895.50;5100425;28;20257;-71
2022/10/11 07:16:34;;;;;;;19.83;12.77;;;;;;;13.89;100.00;98896.25;5099038;28;20251;-70
2022/10/11 07:19:02;;;;;;;20.23;13.33;;;;;;;13.92;100.00;98898.66;5098712;28;20235;-70
2022/10/11 07:21:32;;;;;;;19.57;14.13;;;;;;;13.96;100.00;98892.19;5102287;28;20274;-70
2022/10/11 07:23:59;;;;;;;18.73;12.73;;;;;;;13.94;100.00;98904.75;5100863;28;20267;-70
2022/10/11 07:26:26;;;;;;;22.20;13.67;;;;;;;13.93;100.00;98900.41;5107572;28;20261;-70
2022/10/11 07:28:53;;;;;;;18.97;13.03;;;;;;;13.87;100.00;98903.47;5113578;28;20230;-71
2022/10/11 07:31:22;;;;;;;18.20;12.80;;;;;;;13.85;100.00;98910.69;5110716;28;20621;-70
2022/10/11 07:33:48;;;;;;;17.23;12.67;;;;;;;13.89;100.00;98906.88;5111751;28;20261;-70
2022/10/11 07:36:15;;;;;;;25.53;13.97;;;;;;;13.92;100.00;98903.97;5106238;28;20598;-70
2022/10/11 07:38:46;;;;;;;21.03;13.03;;;;;;;13.93;100.00;98908.38;5107821;28;20559;-71
2022/10/11 07:41:13;;;;;;;26.43;13.70;;;;;;;13.98;100.00;98900.88;5110407;28;20630;-70
2022/10/11 07:43:42;;;;;;;20.20;13.17;;;;;;;13.94;100.00;98910.88;5112970;28;20230;-70
2022/10/11 07:46:09;;;;;;;22.33;13.77;;;;;;;14.00;100.00;98893.69;5113190;28;20543;-70
2022/10/11 07:48:37;;;;;;;21.63;12.67;;;;;;;14.03;100.00;98909.41;5104885;28;20313;-70
2022/10/11 07:51:05;;;;;;;21.63;12.93;;;;;;;14.12;100.00;98911.41;5102592;28;20234;-70
2022/10/11 07:53:32;;;;;;;19.00;13.10;;;;;;;14.18;100.00;98911.81;5099792;28;20281;-70
2022/10/11 07:56:03;;;;;;;19.57;12.77;;;;;;;14.19;100.00;98915.38;5104536;28;20257;-70
2022/10/11 07:58:30;;;;;;;17.40;12.63;;;;;;;14.22;100.00;98920.44;5111254;28;20610;-70
2022/10/11 08:00:56;;;;;;;19.30;12.67;;;;;;;14.22;100.00;98916.00;5109314;28;20582;-70
2022/10/11 08:03:23;;;;;;;18.37;12.60;;;;;;;14.26;100.00;98921.94;5099562;28;20263;-71
2022/10/11 08:05:51;;;;;;;19.17;12.17;;;;;;;14.24;100.00;98918.56;5099641;28;20289;-71
2022/10/11 08:08:18;;;;;;;22.33;13.13;;;;;;;14.26;100.00;98922.81;5105950;28;20241;-71
2022/10/11 08:10:45;;;;;;;20.60;13.50;;;;;;;14.34;100.00;98924.91;5097482;28;20231;-71
2022/10/11 08:13:13;;;;;;;20.03;13.33;;;;;;;14.31;100.00;98925.13;5098710;28;20673;-71
2022/10/11 08:15:40;;;;;;;17.87;12.80;;;;;;;14.30;100.00;98928.75;5098413;28;20364;-71
2022/10/11 08:18:07;;;;;;;20.20;13.47;;;;;;;14.40;100.00;98932.44;5107481;28;20266;-70
2022/10/11 08:20:33;;;;;;;17.07;13.20;;;;;;;14.43;100.00;98929.56;5109700;28;20653;-71
2022/10/11 08:23:00;;;;;;;21.63;13.57;;;;;;;14.46;100.00;98924.00;5108578;28;20265;-71
2022/10/11 08:25:27;;;;;;;22.17;14.00;;;;;;;14.49;100.00;98931.78;5107034;28;20231;-73
2022/10/11 08:27:53;;;;;;;20.43;13.33;;;;;;;14.56;100.00;98933.91;5107599;28;20224;-72
2022/10/11 08:30:21;;;;;;;21.77;12.77;;;;;;;14.59;100.00;98936.31;5105284;28;20259;-72
2022/10/11 08:32:48;;;;;;;22.90;13.90;;;;;;;14.64;100.00;98928.00;5107867;28;20619;-74
2022/10/11 08:35:15;;;;;;;22.17;13.53;;;;;;;14.67;100.00;98938.44;5109290;28;20295;-71
2022/10/11 08:37:42;;;;;;;19.70;13.03;;;;;;;14.62;100.00;98937.91;5107769;28;20253;-69
2022/10/11 08:40:14;;;;;;;17.73;12.43;;;;;;;14.60;100.00;98931.88;5104356;28;20635;-72
2022/10/11 08:42:45;;;;;;;21.27;13.47;;;;;;;14.58;100.00;98933.75;5108898;28;20238;-72
2022/10/11 08:45:27;;;;;;;19.63;12.40;;;;;;;14.63;100.00;98936.94;5109040;28;20258;-72
2022/10/11 08:48:02;;;;;;;20.27;12.83;;;;;;;14.61;100.00;98930.91;5103998;28;20596;-76
2022/10/11 08:50:31;;;;;;;20.77;12.43;;;;;;;14.54;100.00;98942.94;5104648;28;20258;-74
2022/10/11 08:53:04;;;;;;;18.97;13.30;;;;;;;14.53;100.00;98938.56;5105458;28;20229;-73
2022/10/11 08:55:39;;;;;;;20.27;13.27;;;;;;;14.57;100.00;98937.38;5101250;28;20254;-72
2022/10/11 08:58:06;;;;;;;20.23;13.23;;;;;;;14.53;100.00;98938.56;5105461;28;20226;-74
2022/10/11 09:00:37;;;;;;;20.77;13.83;;;;;;;14.43;100.00;98934.88;5108399;28;20226;-75
2022/10/11 09:03:23;;;;;;;24.10;13.97;;;;;;;14.58;100.00;98939.94;5107892;28;20623;-75
2022/10/11 09:06:06;;;;;;;19.60;12.37;;;;;;;14.67;100.00;98933.94;5104861;28;20254;-74
2022/10/11 09:08:47;;;;;;;23.73;13.60;;;;;;;14.72;100.00;98936.28;5099340;28;20709;-73
2022/10/11 09:11:23;;;;;;;21.93;13.30;;;;;;;14.75;100.00;98928.06;5102210;28;20259;-77
2022/10/11 09:14:03;;;;;;;21.67;12.67;;;;;;;14.90;100.00;98929.63;5103561;28;20262;-75
2022/10/11 09:16:43;;;;;;;20.33;12.77;;;;;;;14.92;100.00;98927.69;5099679;28;20577;-74
2022/10/11 09:19:35;;;;;;;16.40;11.20;;;;;;;15.03;100.00;98936.56;5106681;28;20232;-73
2022/10/11 09:22:14;;;;;;;19.73;12.03;;;;;;;15.17;100.00;98928.41;5108046;28;20601;-76
2022/10/11 09:24:56;;;;;;;19.50;11.90;;;;;;;15.21;100.00;98929.03;5107418;28;20657;-74
2022/10/11 09:27:30;;;;;;;14.17;10.93;;;;;;;15.28;100.00;98931.09;5104261;28;20581;-74
2022/10/11 09:30:02;;;;;;;24.30;11.53;;;;;;;15.49;100.00;98936.63;5100327;28;20307;-73
2022/10/11 09:32:36;;;;;;;15.33;11.57;;;;;;;15.53;100.00;98938.13;5099494;28;20224;-72
2022/10/11 09:35:11;;;;;;;19.30;12.47;;;;;;;15.51;100.00;98932.06;5106128;28;20290;-74
2022/10/11 09:37:45;;;;;;;16.03;10.33;;;;;;;15.62;100.00;98924.06;5106114;28;20266;-74
2022/10/11 09:40:25;;;;;;;14.93;10.37;;;;;;;15.76;100.00;98926.53;5104768;28;20228;-74
2022/10/11 09:42:51;;;;;;;19.10;10.60;;;;;;;15.72;100.00;98930.41;5107791;28;20271;-75
2022/10/11 09:45:21;;;;;;;15.17;10.00;;;;;;;15.64;100.00;98932.81;5107475;28;20260;-75
2022/10/11 09:47:51;;;;;;;14.77;10.90;;;;;;;15.78;100.00;98929.94;5103540;28;20639;-75
2022/10/11 09:50:20;;;;;;;14.13;9.77;;;;;;;15.83;100.00;98936.59;5104752;28;20668;-76
2022/10/11 09:52:51;;;;;;;13.97;10.23;;;;;;;15.82;100.00;98936.72;5108396;28;20269;-76
2022/10/11 09:55:33;;;;;;;15.10;9.80;;;;;;;16.02;100.00;98938.69;5105653;28;20253;-77
2022/10/11 09:58:00;;;;;;;13.57;9.67;;;;;;;16.13;100.00;98937.72;5112815;28;20262;-76
2022/10/11 10:00:29;;;;;;;16.73;10.03;;;;;;;16.19;100.00;98939.91;5110778;28;20225;-76
2022/10/11 10:02:58;;;;;;;14.67;9.30;;;;;;;16.12;100.00;98945.00;5109146;28;20638;-76
2022/10/11 10:05:26;;;;;;;17.00;10.30;;;;;;;16.08;100.00;98938.19;5112627;28;20251;-76
2022/10/11 10:08:02;;;;;;;13.27;10.27;;;;;;;15.99;100.00;98945.09;5112470;28;20683;-76
2022/10/11 10:10:33;;;;;;;13.43;9.70;;;;;;;16.02;100.00;98936.84;5109072;28;20234;-74
2022/10/11 10:13:02;;;;;;;13.77;9.03;;;;;;;16.08;100.00;98939.91;5109247;28;20669;-74
2022/10/11 10:15:30;;;;;;;17.80;10.00;;;;;;;16.08;100.00;98938.19;5112653;28;20231;-74
2022/10/11 10:17:59;;;;;;;16.80;10.10;;;;;;;16.03;100.00;98934.06;5112253;28;20251;-75
2022/10/11 10:20:30;;;;;;;15.57;9.90;;;;;;;16.05;100.00;98944.63;5108774;28;20264;-76
2022/10/11 10:22:57;;;;;;;14.83;9.73;;;;;;;16.07;100.00;98939.19;5112066;28;20242;-76
2022/10/11 10:25:31;;;;;;;13.40;9.87;;;;;;;16.16;100.00;98942.78;5112437;28;20597;-76
2022/10/11 10:28:00;;;;;;;13.83;9.70;;;;;;;16.16;100.00;98944.63;5106200;28;20264;-71
2022/10/11 10:30:27;;;;;;;13.20;9.30;;;;;;;16.16;100.00;98942.78;5108590;28;20268;-69
2022/10/11 10:32:59;;;;;;;16.33;9.87;;;;;;;16.16;100.00;98937.47;5116557;28;20247;-69
2022/10/11 10:35:30;;;;;;;15.37;9.63;;;;;;;16.23;100.00;98937.84;5112083;28;20232;-69
2022/10/11 10:38:06;;;;;;;12.77;9.93;;;;;;;16.24;100.00;98935.06;5108924;28;20257;-70
2022/10/11 10:40:39;;;;;;;12.97;9.83;;;;;;;16.21;100.00;98929.94;5098297;28;20354;-70
2022/10/11 10:43:06;;;;;;;15.17;9.90;;;;;;;16.21;100.00;98932.63;5111391;28;20298;-71
2022/10/11 10:45:41;;;;;;;11.63;9.07;;;;;;;16.18;100.00;98934.69;5110160;28;20264;-71
2022/10/11 10:48:22;;;;;;;15.13;9.40;;;;;;;16.28;100.00;98933.81;5107876;28;20268;-71
2022/10/11 10:50:55;;;;;;;16.60;9.80;;;;;;;16.34;100.00;98935.16;5103452;28;20472;-70
2022/10/11 10:53:28;;;;;;;16.33;9.07;;;;;;;16.54;99.80;98931.78;5103731;28;20261;-71
2022/10/11 10:56:04;;;;;;;12.10;8.70;;;;;;;16.66;98.75;98931.66;5106420;28;20362;-71
2022/10/11 10:58:42;;;;;;;14.07;9.00;;;;;;;16.84;97.10;98930.16;5103545;28;20576;-71
2022/10/11 11:01:15;;;;;;;13.40;9.30;;;;;;;16.99;94.97;98923.53;5103249;28;20624;-72
2022/10/11 11:03:47;;;;;;;12.93;8.83;;;;;;;17.04;94.27;98929.34;5107772;28;20230;-71
2022/10/11 11:06:26;;;;;;;13.53;9.83;;;;;;;16.87;93.25;98918.34;5109384;28;20264;-71
2022/10/11 11:09:05;;;;;;;12.90;9.30;;;;;;;17.12;94.39;98924.22;5111709;28;20248;-71
2022/10/11 11:11:46;;;;;;;11.30;9.10;;;;;;;17.18;93.51;98921.03;5107715;28;20317;-71
2022/10/11 11:14:27;;;;;;;15.97;9.60;;;;;;;17.17;91.86;98911.31;5103061;28;20261;-69
2022/10/11 11:17:05;;;;;;;12.20;8.50;;;;;;;17.14;93.81;98924.91;5103065;28;20226;-72
2022/10/11 11:19:46;;;;;;;13.60;8.77;;;;;;;17.26;94.01;98918.56;5107678;28;20261;-70
2022/10/11 11:22:20;;;;;;;15.07;8.47;;;;;;;17.31;91.96;98910.19;5102744;28;20238;-70
2022/10/11 11:24:56;;;;;;;11.30;8.43;;;;;;;17.35;92.27;98914.25;5102892;28;20271;-71